createdAt,value
2023-11-02T00:02:28.933Z,3.03
2023-11-02T00:04:58.002Z,2.58
2023-11-02T00:07:29.497Z,3.88
2023-11-02T00:09:58.961Z,3.45
2023-11-02T00:12:31.767Z,2.17
2023-11-02T00:15:02.557Z,2.90
2023-11-02T00:17:57.578Z,1.83
2023-11-02T00:20:32.310Z,2.35
2023-11-02T00:23:00.046Z,3.10
2023-11-02T00:25:52.303Z,2.63
2023-11-02T00:28:26.421Z,2.65
2023-11-02T00:30:54.397Z,3.28
2023-11-02T00:33:23.193Z,2.65
2023-11-02T00:35:53.062Z,2.08
2023-11-02T00:38:22.488Z,2.70
2023-11-02T00:40:50.600Z,2.72
2023-11-02T00:43:20.615Z,4.43
2023-11-02T00:45:50.376Z,2.58
2023-11-02T00:48:22.182Z,3.55
2023-11-02T00:53:34.984Z,1.67
2023-11-02T00:56:07.416Z,2.33
2023-11-02T00:58:36.180Z,3.15
2023-11-02T01:01:11.164Z,2.38
2023-11-02T01:03:40.369Z,4.03
2023-11-02T01:06:17.389Z,3.38
2023-11-02T01:08:45.335Z,2.47
2023-11-02T01:11:13.378Z,3.85
2023-11-02T01:13:41.935Z,2.10
2023-11-02T01:16:12.813Z,4.05
2023-11-02T01:18:45.554Z,1.85
2023-11-02T01:21:16.166Z,2.65
2023-11-02T01:23:44.015Z,3.08
2023-11-02T01:26:51.920Z,2.67
2023-11-02T01:29:19.673Z,2.75
2023-11-02T01:31:48.899Z,2.17
2023-11-02T01:34:21.753Z,2.38
2023-11-02T01:36:49.717Z,2.53
2023-11-02T01:39:47.526Z,3.38
2023-11-02T01:42:21.290Z,3.38
2023-11-02T01:44:56.063Z,2.03
2023-11-02T01:47:40.489Z,2.45
2023-11-02T01:50:14.652Z,2.58
2023-11-02T01:53:03.995Z,2.55
2023-11-02T01:55:49.328Z,2.42
2023-11-02T01:58:30.888Z,2.53
2023-11-02T02:01:06.435Z,2.67
2023-11-02T02:03:45.596Z,2.97
2023-11-02T02:06:21.255Z,3.38
2023-11-02T02:08:56.970Z,3.35
2023-11-02T02:11:36.719Z,3.22
2023-11-02T02:14:15.574Z,3.15
2023-11-02T02:16:47.518Z,4.18
2023-11-02T02:19:40.791Z,2.38
2023-11-02T02:22:12.753Z,2.72
2023-11-02T02:24:50.397Z,4.13
2023-11-02T02:27:43.855Z,3.03
2023-11-02T02:30:49.774Z,3.20
2023-11-02T02:33:47.340Z,1.88
2023-11-02T02:36:20.876Z,3.42
2023-11-02T02:38:52.941Z,2.38
2023-11-02T02:41:24.503Z,2.70
2023-11-02T02:43:54.301Z,2.67
2023-11-02T02:46:24.925Z,3.65
2023-11-02T02:48:52.718Z,3.42
2023-11-02T02:51:24.061Z,3.08
2023-11-02T02:53:52.729Z,3.10
2023-11-02T02:56:25.278Z,5.68
2023-11-02T02:58:58.330Z,2.40
2023-11-02T03:01:30.822Z,2.92
2023-11-02T03:04:00.064Z,2.05
2023-11-02T03:06:30.724Z,3.38
2023-11-02T03:09:01.173Z,3.20
2023-11-02T03:11:31.493Z,3.45
2023-11-02T03:14:02.062Z,3.17
2023-11-02T03:16:35.940Z,3.28
2023-11-02T03:19:06.738Z,3.50
2023-11-02T03:21:36.119Z,4.00
2023-11-02T03:24:11.592Z,2.47
2023-11-02T03:26:49.381Z,4.18
2023-11-02T03:29:27.749Z,2.72
2023-11-02T03:32:09.549Z,2.78
2023-11-02T03:34:46.968Z,2.53
2023-11-02T03:37:25.628Z,2.22
2023-11-02T03:40:14.444Z,2.70
2023-11-02T03:42:50.587Z,2.28
2023-11-02T03:45:32.220Z,3.85
2023-11-02T03:48:11.374Z,3.42
2023-11-02T03:50:53.101Z,3.10
2023-11-02T03:53:30.893Z,3.28
2023-11-02T03:56:12.951Z,3.88
2023-11-02T04:01:20.424Z,3.30
2023-11-02T04:03:52.496Z,3.85
2023-11-02T04:06:23.387Z,2.58
2023-11-02T04:08:55.774Z,1.92
2023-11-02T04:11:30.265Z,4.20
2023-11-02T04:14:13.255Z,4.50
2023-11-02T04:16:41.091Z,5.22
2023-11-02T04:19:09.344Z,3.33
2023-11-02T04:21:37.320Z,2.67
2023-11-02T04:24:06.857Z,4.55
2023-11-02T04:26:35.411Z,5.95
2023-11-02T04:29:03.117Z,5.18
2023-11-02T04:31:30.762Z,2.35
2023-11-02T04:33:58.421Z,2.05
2023-11-02T04:36:26.236Z,2.85
2023-11-02T04:38:54.271Z,2.75
2023-11-02T04:41:23.269Z,5.70
2023-11-02T04:43:50.959Z,2.90
2023-11-02T04:46:18.652Z,2.20
2023-11-02T04:48:46.361Z,4.57
2023-11-02T04:51:14.074Z,3.65
2023-11-02T04:53:41.857Z,3.97
2023-11-02T04:56:10.220Z,3.42
2023-11-02T04:58:39.236Z,3.25
2023-11-02T05:01:07.609Z,3.95
2023-11-02T05:03:35.298Z,2.85
2023-11-02T05:06:03.044Z,3.30
2023-11-02T05:08:31.003Z,2.50
2023-11-02T05:10:58.768Z,4.10
2023-11-02T05:13:26.478Z,3.35
2023-11-02T05:15:59.331Z,3.67
2023-11-02T05:18:27.024Z,3.85
2023-11-02T05:20:58.942Z,5.15
2023-11-02T05:23:27.106Z,4.07
2023-11-02T05:25:54.914Z,2.33
2023-11-02T05:28:22.983Z,3.60
2023-11-02T05:30:50.582Z,2.58
2023-11-02T05:33:19.723Z,6.00
2023-11-02T05:35:47.400Z,2.95
2023-11-02T05:38:15.109Z,4.13
2023-11-02T05:40:44.843Z,4.45
2023-11-02T05:43:12.572Z,2.50
2023-11-02T05:45:40.483Z,2.75
2023-11-02T05:48:08.275Z,3.35
2023-11-02T05:50:39.770Z,5.88
2023-11-02T05:53:07.572Z,3.58
2023-11-02T05:55:35.180Z,3.40
2023-11-02T05:58:02.811Z,2.95
2023-11-02T06:00:30.677Z,3.97
2023-11-02T06:02:58.441Z,2.08
2023-11-02T06:05:26.560Z,2.38
2023-11-02T06:07:55.527Z,3.60
2023-11-02T06:10:23.153Z,2.78
2023-11-02T06:12:50.851Z,3.35
2023-11-02T06:15:19.180Z,3.15
2023-11-02T06:17:46.948Z,3.78
2023-11-02T06:20:14.954Z,3.05
2023-11-02T06:22:42.661Z,3.78
2023-11-02T06:25:12.208Z,2.78
2023-11-02T06:27:39.866Z,3.75
2023-11-02T06:30:09.567Z,4.18
2023-11-02T06:32:37.663Z,3.30
2023-11-02T06:35:05.850Z,2.60
2023-11-02T06:37:33.666Z,2.38
2023-11-02T06:40:01.877Z,2.40
2023-11-02T06:42:30.894Z,2.35
2023-11-02T06:44:58.495Z,3.40
2023-11-02T06:47:26.143Z,1.52
2023-11-02T06:49:54.374Z,2.40
2023-11-02T06:52:22.185Z,2.80
2023-11-02T06:54:50.201Z,5.00
2023-11-02T06:57:17.867Z,3.85
2023-11-02T06:59:47.009Z,2.25
2023-11-02T07:02:14.695Z,1.98
2023-11-02T07:04:42.545Z,3.28
2023-11-02T07:07:10.450Z,3.00
2023-11-02T07:09:38.190Z,2.67
2023-11-02T07:12:06.512Z,2.13
2023-11-02T07:14:34.242Z,1.40
2023-11-02T07:17:03.598Z,1.65
2023-11-02T07:19:31.265Z,3.22
2023-11-02T07:21:59.424Z,2.53
2023-11-02T07:24:27.432Z,4.35
2023-11-02T07:26:55.234Z,3.50
2023-11-02T07:29:22.848Z,1.83
2023-11-02T07:31:50.528Z,1.70
2023-11-02T07:34:19.897Z,4.82
2023-11-02T07:36:47.581Z,2.47
2023-11-02T07:39:16.682Z,3.35
2023-11-02T07:41:44.387Z,1.38
2023-11-02T07:44:12.052Z,1.92
2023-11-02T07:46:39.698Z,2.55
2023-11-02T07:49:07.600Z,2.47
2023-11-02T07:51:36.714Z,1.90
2023-11-02T07:54:04.647Z,3.22
2023-11-02T07:56:32.253Z,4.70
2023-11-02T07:59:00.027Z,1.08
2023-11-02T08:01:29.098Z,3.17
2023-11-02T08:03:57.015Z,2.05
2023-11-02T08:06:25.607Z,1.67
2023-11-02T08:08:54.767Z,5.20
2023-11-02T08:11:22.501Z,1.38
2023-11-02T08:13:51.947Z,2.92
2023-11-02T08:16:22.239Z,1.45
2023-11-02T08:18:50.148Z,2.78
2023-11-02T08:21:17.935Z,1.42
2023-11-02T08:23:45.604Z,1.90
2023-11-02T08:26:14.675Z,1.45
2023-11-02T08:28:42.490Z,1.73
2023-11-02T08:31:10.475Z,0.85
2023-11-02T08:33:38.645Z,2.83
2023-11-02T08:36:07.530Z,1.90
2023-11-02T08:38:35.161Z,2.78
2023-11-02T08:41:03.155Z,1.95
2023-11-02T08:43:33.885Z,2.75
2023-11-02T08:46:01.534Z,1.63
2023-11-02T08:48:30.241Z,1.48
2023-11-02T08:50:57.998Z,2.45
2023-11-02T08:53:25.642Z,1.75
2023-11-02T08:55:53.462Z,1.63
2023-11-02T08:58:21.381Z,2.08
2023-11-02T09:00:50.369Z,1.77
2023-11-02T09:03:18.000Z,1.80
2023-11-02T09:05:45.971Z,2.47
2023-11-02T09:08:13.722Z,2.17
2023-11-02T09:10:41.379Z,1.73
2023-11-02T09:13:09.017Z,2.42
2023-11-02T09:15:37.843Z,2.55
2023-11-02T09:18:07.052Z,1.27
2023-11-02T09:20:35.182Z,2.38
2023-11-02T09:23:03.027Z,2.70
2023-11-02T09:25:30.725Z,1.92
2023-11-02T09:27:58.960Z,2.30
2023-11-02T09:30:26.734Z,1.20
2023-11-02T09:32:54.514Z,2.25
2023-11-02T09:35:23.606Z,1.90
2023-11-02T09:37:51.280Z,1.58
2023-11-02T09:40:19.146Z,5.55
2023-11-02T09:42:46.990Z,0.82
2023-11-02T09:45:15.636Z,1.75
2023-11-02T09:47:43.702Z,1.95
2023-11-02T09:50:12.251Z,3.58
2023-11-02T09:52:41.648Z,3.97
2023-11-02T09:55:12.502Z,2.00
2023-11-02T09:57:40.789Z,3.05
2023-11-02T10:00:10.138Z,2.47
2023-11-02T10:02:41.861Z,2.55
2023-11-02T10:05:11.423Z,3.42
2023-11-02T10:07:39.187Z,1.60
2023-11-02T10:10:10.639Z,1.30
2023-11-02T10:12:39.301Z,1.48
2023-11-02T10:15:08.919Z,1.70
2023-11-02T10:17:37.312Z,1.45
2023-11-02T10:20:12.537Z,2.53
2023-11-02T10:22:40.680Z,1.63
2023-11-02T10:25:13.603Z,4.10
2023-11-02T10:27:42.856Z,2.13
2023-11-02T10:30:12.064Z,2.75
2023-11-02T10:32:40.025Z,3.10
2023-11-02T10:35:09.273Z,3.13
2023-11-02T10:37:38.755Z,2.15
2023-11-02T10:40:07.869Z,2.13
2023-11-02T10:42:39.701Z,2.10
2023-11-02T10:45:11.773Z,1.55
2023-11-02T10:47:41.764Z,1.90
2023-11-02T10:50:12.899Z,1.63
2023-11-02T10:52:46.327Z,2.13
2023-11-02T10:55:24.028Z,2.50
2023-11-02T10:57:54.976Z,2.35
2023-11-02T11:00:24.600Z,2.10
2023-11-02T11:02:52.862Z,2.47
2023-11-02T11:05:21.459Z,1.75
2023-11-02T11:07:54.063Z,2.03
2023-11-02T11:10:22.077Z,4.30
2023-11-02T11:12:52.610Z,2.45
2023-11-02T11:15:24.304Z,1.52
2023-11-02T11:17:56.600Z,3.95
2023-11-02T11:20:25.131Z,2.38
2023-11-02T11:22:54.344Z,2.75
2023-11-02T11:25:22.244Z,4.82
2023-11-02T11:27:50.932Z,1.92
2023-11-02T11:30:39.240Z,2.20
2023-11-02T11:33:49.311Z,1.60
2023-11-02T11:36:22.042Z,2.28
2023-11-02T11:38:49.821Z,3.10
2023-11-02T11:41:43.540Z,2.05
2023-11-02T11:44:19.098Z,1.95
2023-11-02T11:46:53.961Z,2.78
2023-11-02T11:49:48.579Z,4.15
2023-11-02T11:52:29.157Z,2.47
2023-11-02T11:54:57.011Z,2.05
2023-11-02T11:57:55.153Z,3.63
2023-11-02T12:00:25.234Z,2.83
2023-11-02T12:02:58.958Z,3.53
2023-11-02T12:05:53.131Z,2.95
2023-11-02T12:08:22.946Z,3.65
2023-11-02T12:10:53.536Z,5.30
2023-11-02T12:13:21.907Z,2.30
2023-11-02T12:15:55.521Z,2.80
2023-11-02T12:18:31.910Z,3.80
2023-11-02T12:21:01.256Z,3.50
2023-11-02T12:23:33.145Z,1.92
2023-11-02T12:28:28.909Z,3.03
2023-11-02T12:30:56.525Z,5.30
2023-11-02T12:33:25.534Z,2.47
2023-11-02T12:35:56.804Z,2.95
2023-11-02T12:38:45.774Z,3.17
2023-11-02T12:41:15.371Z,3.72
2023-11-02T12:43:44.582Z,3.95
2023-11-02T12:46:12.241Z,3.00
2023-11-02T12:48:43.444Z,4.05
2023-11-02T12:51:16.105Z,4.63
2023-11-02T12:53:44.870Z,3.00
2023-11-02T12:56:14.048Z,3.63
2023-11-02T12:58:43.715Z,3.20
2023-11-02T13:01:12.246Z,4.40
2023-11-02T13:03:59.911Z,3.55
2023-11-02T13:06:28.068Z,3.17
2023-11-02T13:09:08.224Z,3.80
2023-11-02T13:11:35.973Z,5.88
2023-11-02T13:14:03.662Z,3.00
2023-11-02T13:16:31.340Z,3.78
2023-11-02T13:19:00.519Z,5.15
2023-11-02T13:21:28.521Z,3.03
2023-11-02T13:23:56.419Z,5.30
2023-11-02T13:26:24.846Z,4.43
2023-11-02T13:28:53.187Z,2.97
2023-11-02T13:31:21.970Z,2.92
2023-11-02T13:33:50.468Z,5.13
2023-11-02T13:36:19.676Z,3.30
2023-11-02T13:38:48.768Z,6.68
2023-11-02T13:41:16.774Z,4.82
2023-11-02T13:43:44.388Z,3.20
2023-11-02T13:46:12.810Z,6.00
2023-11-02T13:48:40.577Z,2.88
2023-11-02T13:51:08.438Z,4.55
2023-11-02T13:53:37.614Z,8.35
2023-11-02T13:56:10.685Z,4.90
2023-11-02T13:58:39.321Z,3.92
2023-11-02T14:01:07.246Z,6.55
2023-11-02T14:03:35.734Z,5.22
2023-11-02T14:06:05.060Z,5.30
2023-11-02T14:08:33.481Z,2.70
2023-11-02T14:11:06.537Z,8.48
2023-11-02T14:13:34.464Z,3.45
2023-11-02T14:16:02.899Z,3.92
2023-11-02T14:18:32.337Z,4.78
2023-11-02T14:21:00.143Z,4.28
2023-11-02T14:23:27.999Z,5.03
2023-11-02T14:25:56.545Z,5.28
2023-11-02T14:28:25.676Z,4.65
2023-11-02T14:30:53.425Z,2.28
2023-11-02T14:33:21.097Z,4.45
2023-11-02T14:35:48.806Z,3.67
2023-11-02T14:38:20.228Z,4.30
2023-11-02T14:40:48.154Z,4.70
2023-11-02T14:43:17.030Z,4.75
2023-11-02T14:45:46.364Z,4.55
2023-11-02T14:48:15.307Z,6.20
2023-11-02T14:50:42.999Z,3.47
2023-11-02T14:53:11.193Z,6.03
2023-11-02T14:55:39.289Z,4.15
2023-11-02T14:58:07.252Z,5.32
2023-11-02T15:00:34.977Z,3.33
2023-11-02T15:03:04.197Z,5.00
2023-11-02T15:05:31.846Z,5.50
2023-11-02T15:07:59.611Z,7.15
2023-11-02T15:10:27.522Z,6.80
2023-11-02T15:12:55.232Z,4.30
2023-11-02T15:15:22.983Z,5.03
2023-11-02T15:17:50.708Z,5.97
2023-11-02T15:20:22.073Z,4.80
2023-11-02T15:22:53.432Z,5.75
2023-11-02T15:25:21.364Z,4.50
2023-11-02T15:27:49.334Z,4.43
2023-11-02T15:30:18.850Z,5.22
2023-11-02T15:32:46.747Z,3.35
2023-11-02T15:35:15.134Z,4.15
2023-11-02T15:37:44.949Z,4.35
2023-11-02T15:40:13.686Z,4.20
2023-11-02T15:42:41.454Z,4.35
2023-11-02T15:45:11.237Z,4.38
2023-11-02T15:47:39.051Z,3.95
2023-11-02T15:50:09.527Z,6.65
2023-11-02T15:52:42.508Z,5.60
2023-11-02T15:55:12.141Z,5.30
2023-11-02T15:57:43.643Z,7.18
2023-11-02T16:00:13.230Z,5.70
2023-11-02T16:02:41.447Z,3.90
2023-11-02T16:05:10.538Z,4.45
2023-11-02T16:07:38.425Z,4.50
2023-11-02T16:10:06.927Z,5.43
2023-11-02T16:12:36.008Z,5.93
2023-11-02T16:15:06.062Z,5.82
2023-11-02T16:17:33.802Z,7.18
2023-11-02T16:20:02.336Z,5.80
2023-11-02T16:22:30.462Z,4.18
2023-11-02T16:24:58.166Z,7.28
2023-11-02T16:27:25.959Z,5.57
2023-11-02T16:29:55.402Z,6.15
2023-11-02T16:32:23.109Z,5.68
2023-11-02T16:35:02.246Z,8.18
2023-11-02T16:37:35.695Z,7.72
2023-11-02T16:40:07.309Z,5.30
2023-11-02T16:42:37.869Z,5.38
2023-11-02T16:45:07.629Z,8.60
2023-11-02T16:47:35.930Z,5.75
2023-11-02T16:50:05.002Z,6.10
2023-11-02T16:52:32.614Z,6.18
2023-11-02T16:55:00.371Z,5.97
2023-11-02T16:57:28.107Z,5.22
2023-11-02T16:59:55.798Z,4.10
2023-11-02T17:02:24.764Z,5.65
2023-11-02T17:04:52.428Z,8.00
2023-11-02T17:07:20.185Z,4.85
2023-11-02T17:09:47.892Z,5.18
2023-11-02T17:12:15.693Z,6.22
2023-11-02T17:14:43.441Z,4.22
2023-11-02T17:17:11.119Z,6.32
2023-11-02T17:19:40.151Z,5.35
2023-11-02T17:22:08.126Z,5.43
2023-11-02T17:24:38.168Z,8.13
2023-11-02T17:27:06.048Z,6.50
2023-11-02T17:29:34.020Z,5.55
2023-11-02T17:32:01.959Z,5.85
2023-11-02T17:34:29.829Z,4.82
2023-11-02T17:36:58.970Z,6.55
2023-11-02T17:39:27.636Z,8.18
2023-11-02T17:41:55.473Z,6.22
2023-11-02T17:44:23.106Z,6.55
2023-11-02T17:46:50.776Z,7.57
2023-11-02T17:49:18.616Z,4.88
2023-11-02T17:51:46.410Z,5.40
2023-11-02T17:54:15.663Z,6.55
2023-11-02T17:56:44.021Z,5.43
2023-11-02T17:59:11.849Z,7.07
2023-11-02T18:01:40.157Z,5.28
2023-11-02T18:04:08.408Z,6.53
2023-11-02T18:06:36.145Z,5.68
2023-11-02T18:09:03.877Z,9.52
2023-11-02T18:11:32.825Z,5.85
2023-11-02T18:14:00.527Z,5.30
2023-11-02T18:16:28.177Z,7.20
2023-11-02T18:18:55.929Z,6.53
2023-11-02T18:21:23.561Z,9.55
2023-11-02T18:23:51.244Z,8.10
2023-11-02T18:26:18.849Z,5.03
2023-11-02T18:28:47.833Z,4.78
2023-11-02T18:31:18.904Z,7.03
2023-11-02T18:33:46.995Z,5.70
2023-11-02T18:36:14.746Z,6.20
2023-11-02T18:38:42.362Z,4.63
2023-11-02T18:41:09.978Z,7.18
2023-11-02T18:43:38.789Z,6.80
2023-11-02T18:46:17.690Z,5.75
2023-11-02T18:48:46.038Z,8.27
2023-11-02T18:51:13.712Z,6.53
2023-11-02T18:53:41.365Z,7.07
2023-11-02T18:56:12.054Z,7.25
2023-11-02T18:58:40.294Z,7.70
2023-11-02T19:01:09.490Z,5.90
2023-11-02T19:03:37.187Z,4.63
2023-11-02T19:06:05.391Z,4.78
2023-11-02T19:08:33.475Z,6.35
2023-11-02T19:11:05.506Z,6.05
2023-11-02T19:13:33.485Z,7.55
2023-11-02T19:16:06.465Z,7.65
2023-11-02T19:18:35.924Z,7.20
2023-11-02T19:21:03.788Z,6.68
2023-11-02T19:23:31.479Z,8.63
2023-11-02T19:26:01.447Z,5.93
2023-11-02T19:28:29.284Z,8.27
2023-11-02T19:30:56.919Z,10.88
2023-11-02T19:33:24.646Z,5.22
2023-11-02T19:35:54.010Z,6.00
2023-11-02T19:38:22.104Z,4.80
2023-11-02T19:40:49.817Z,10.18
2023-11-02T19:43:22.783Z,7.00
2023-11-02T19:45:51.738Z,8.02
2023-11-02T19:48:20.608Z,7.32
2023-11-02T19:50:48.999Z,6.85
2023-11-02T19:53:18.041Z,7.80
2023-11-02T19:55:45.709Z,6.07
2023-11-02T19:58:13.642Z,7.57
2023-11-02T20:00:41.678Z,6.60
2023-11-02T20:03:10.880Z,7.93
2023-11-02T20:05:39.945Z,7.35
2023-11-02T20:08:07.640Z,5.88
2023-11-02T20:10:36.587Z,9.15
2023-11-02T20:13:04.679Z,5.68
2023-11-02T20:15:32.312Z,8.73
2023-11-02T20:18:00.021Z,8.95
2023-11-02T20:20:27.735Z,9.43
2023-11-02T20:22:56.424Z,6.97
2023-11-02T20:25:24.185Z,7.20
2023-11-02T20:27:53.259Z,5.70
2023-11-02T20:30:20.931Z,5.75
2023-11-02T20:32:48.636Z,6.57
2023-11-02T20:35:16.404Z,6.07
2023-11-02T20:37:44.434Z,9.75
2023-11-02T20:40:13.437Z,6.68
2023-11-02T20:42:42.580Z,5.50
2023-11-02T20:45:16.071Z,6.10
2023-11-02T20:47:44.373Z,4.28
2023-11-02T20:50:12.248Z,6.00
2023-11-02T20:52:40.673Z,8.05
2023-11-02T20:55:09.028Z,5.35
2023-11-02T20:57:37.383Z,7.35
2023-11-02T21:00:05.799Z,7.05
2023-11-02T21:02:34.887Z,7.25
2023-11-02T21:05:02.483Z,5.82
2023-11-02T21:07:30.714Z,6.45
2023-11-02T21:09:58.401Z,6.30
2023-11-02T21:12:26.210Z,5.30
2023-11-02T21:14:53.857Z,4.93
2023-11-02T21:17:21.884Z,5.35
2023-11-02T21:19:51.497Z,4.93
2023-11-02T21:22:19.170Z,4.68
2023-11-02T21:24:49.143Z,4.90
2023-11-02T21:27:16.912Z,6.53
2023-11-02T21:29:44.636Z,6.82
2023-11-02T21:32:12.586Z,10.27
2023-11-02T21:34:42.888Z,9.32
2023-11-02T21:37:12.786Z,4.97
2023-11-02T21:39:41.444Z,5.32
2023-11-02T21:42:09.266Z,5.90
2023-11-02T21:44:37.497Z,6.13
2023-11-02T21:47:05.415Z,4.57
2023-11-02T21:49:33.518Z,5.60
2023-11-02T21:52:01.576Z,7.63
2023-11-02T21:54:30.839Z,6.40
2023-11-02T21:56:58.450Z,5.95
2023-11-02T21:59:26.070Z,3.90
2023-11-02T22:01:53.695Z,5.18
2023-11-02T22:04:21.781Z,5.80
2023-11-02T22:06:49.516Z,5.38
2023-11-02T22:09:17.405Z,5.22
2023-11-02T22:11:46.618Z,6.50
2023-11-02T22:14:14.284Z,6.93
2023-11-02T22:16:41.908Z,5.88
2023-11-02T22:19:09.582Z,3.30
2023-11-02T22:21:37.670Z,5.70
2023-11-02T22:24:06.010Z,4.10
2023-11-02T22:26:33.721Z,4.65
2023-11-02T22:29:02.818Z,4.55
2023-11-02T22:31:30.983Z,3.75
2023-11-02T22:33:58.952Z,4.57
2023-11-02T22:36:26.713Z,3.20
2023-11-02T22:38:58.838Z,6.03
2023-11-02T22:41:27.510Z,3.33
2023-11-02T22:43:55.171Z,5.53
2023-11-02T22:46:24.274Z,5.88
2023-11-02T22:48:52.014Z,4.18
2023-11-02T22:51:19.788Z,5.65
2023-11-02T22:53:47.412Z,7.07
2023-11-02T22:56:17.726Z,5.45
2023-11-02T22:58:45.652Z,6.22
2023-11-02T23:01:17.284Z,5.80
2023-11-02T23:03:49.356Z,8.23
2023-11-02T23:06:17.530Z,8.00
2023-11-02T23:08:45.194Z,6.53
2023-11-02T23:11:13.373Z,7.32
2023-11-02T23:13:41.486Z,6.75
2023-11-02T23:16:10.120Z,8.55
2023-11-02T23:18:38.192Z,7.75
2023-11-02T23:21:09.522Z,6.93
2023-11-02T23:23:37.228Z,8.38
2023-11-02T23:26:06.459Z,5.05
2023-11-02T23:28:34.768Z,5.05
2023-11-02T23:31:02.671Z,5.40
2023-11-02T23:33:30.504Z,4.57
2023-11-02T23:35:58.262Z,6.43
2023-11-02T23:38:27.336Z,5.28
2023-11-02T23:40:55.486Z,5.95
2023-11-02T23:43:24.511Z,7.03
2023-11-02T23:45:52.350Z,6.50
2023-11-02T23:48:20.202Z,6.85
2023-11-02T23:50:47.855Z,6.25
2023-11-02T23:53:15.674Z,6.68
2023-11-02T23:55:44.670Z,5.93
2023-11-02T23:58:12.432Z,8.15
